createdAt,value
2023-03-31T00:01:52.622Z,4.03
2023-03-31T00:04:23.870Z,5.85
2023-03-31T00:06:53.859Z,7.65
2023-03-31T00:09:24.508Z,9.93
2023-03-31T00:11:52.226Z,2.05
2023-03-31T00:14:20.262Z,4.65
2023-03-31T00:16:46.666Z,4.50
2023-03-31T00:19:20.550Z,3.40
2023-03-31T00:21:48.771Z,4.53
2023-03-31T00:24:16.256Z,6.68
2023-03-31T00:26:43.204Z,7.18
2023-03-31T00:29:12.527Z,10.68
2023-03-31T00:31:39.016Z,6.35
2023-03-31T00:34:06.127Z,9.55
2023-03-31T00:36:36.358Z,7.50
2023-03-31T00:39:08.826Z,5.57
2023-03-31T00:41:37.520Z,10.65
2023-03-31T00:44:22.552Z,10.52
2023-03-31T00:47:02.117Z,13.63
2023-03-31T00:49:32.998Z,6.85
2023-03-31T00:52:05.542Z,5.65
2023-03-31T00:54:34.052Z,4.82
2023-03-31T00:57:03.412Z,6.18
2023-03-31T00:59:34.594Z,9.80
2023-03-31T01:02:02.851Z,7.90
2023-03-31T01:04:34.852Z,7.95
2023-03-31T01:07:22.872Z,7.63
2023-03-31T01:09:54.186Z,8.35
2023-03-31T01:12:22.093Z,2.67
2023-03-31T01:14:50.461Z,5.13
2023-03-31T01:17:21.428Z,7.18
2023-03-31T01:23:06.938Z,6.15
2023-03-31T01:25:45.582Z,6.82
2023-03-31T01:28:26.445Z,2.95
2023-03-31T01:31:21.762Z,4.90
2023-03-31T01:34:00.707Z,7.28
2023-03-31T01:37:04.561Z,8.02
2023-03-31T01:40:09.769Z,10.60
2023-03-31T01:43:10.983Z,9.55
2023-03-31T01:46:03.900Z,6.78
2023-03-31T01:48:48.101Z,10.45
2023-03-31T01:51:43.498Z,8.65
2023-03-31T01:54:27.825Z,10.00
2023-03-31T01:57:01.886Z,7.13
2023-03-31T01:59:37.796Z,11.98
2023-03-31T02:02:15.796Z,13.27
2023-03-31T02:04:50.897Z,6.60
2023-03-31T02:07:22.272Z,7.35
2023-03-31T02:09:57.233Z,11.15
2023-03-31T02:12:27.450Z,11.00
2023-03-31T02:14:57.173Z,10.75
2023-03-31T02:17:30.268Z,11.80
2023-03-31T02:20:01.440Z,14.68
2023-03-31T02:22:36.078Z,7.78
2023-03-31T02:25:06.228Z,11.88
2023-03-31T02:27:38.972Z,9.73
2023-03-31T02:30:07.490Z,11.75
2023-03-31T02:32:38.772Z,15.73
2023-03-31T02:35:07.947Z,9.98
2023-03-31T02:37:34.693Z,10.32
2023-03-31T02:40:06.318Z,8.30
2023-03-31T02:42:32.652Z,11.45
2023-03-31T02:45:04.809Z,8.50
2023-03-31T02:47:31.388Z,16.92
2023-03-31T02:50:01.429Z,10.55
2023-03-31T02:52:30.934Z,9.32
2023-03-31T02:55:06.581Z,9.18
2023-03-31T02:57:54.874Z,11.10
2023-03-31T03:00:46.985Z,19.38
2023-03-31T03:03:16.364Z,19.67
2023-03-31T03:05:59.170Z,17.00
2023-03-31T03:08:42.209Z,13.27
2023-03-31T03:11:27.137Z,12.35
2023-03-31T03:14:11.987Z,7.57
2023-03-31T03:16:47.867Z,9.50
2023-03-31T03:19:23.367Z,15.13
2023-03-31T03:21:49.903Z,18.00
2023-03-31T03:24:17.787Z,9.43
2023-03-31T03:26:45.485Z,9.05
2023-03-31T03:29:15.697Z,11.65
2023-03-31T03:31:42.720Z,11.00
2023-03-31T03:34:09.701Z,9.57
2023-03-31T03:36:39.669Z,13.45
2023-03-31T03:39:07.614Z,15.68
2023-03-31T03:41:33.970Z,11.50
2023-03-31T03:44:00.899Z,12.95
2023-03-31T03:46:27.507Z,8.80
2023-03-31T03:48:54.084Z,13.43
2023-03-31T03:51:20.532Z,13.65
2023-03-31T03:53:46.955Z,11.40
2023-03-31T03:56:13.571Z,9.85
2023-03-31T03:58:39.837Z,12.32
2023-03-31T04:01:06.667Z,10.80
2023-03-31T04:03:33.060Z,9.85
2023-03-31T04:05:59.388Z,8.20
2023-03-31T04:08:25.742Z,9.52
2023-03-31T04:10:52.089Z,11.55
2023-03-31T04:13:20.057Z,7.97
2023-03-31T04:15:46.769Z,8.90
2023-03-31T04:18:22.858Z,8.13
2023-03-31T04:20:54.705Z,10.38
2023-03-31T04:23:23.367Z,9.80
2023-03-31T04:25:52.628Z,18.92
2023-03-31T04:28:19.901Z,14.13
2023-03-31T04:30:46.232Z,10.55
2023-03-31T04:33:15.317Z,8.80
2023-03-31T04:35:52.516Z,7.13
2023-03-31T04:38:21.439Z,5.93
2023-03-31T04:40:52.116Z,9.73
2023-03-31T04:43:20.323Z,11.85
2023-03-31T04:45:47.041Z,11.48
2023-03-31T04:48:13.522Z,7.05
2023-03-31T04:50:39.885Z,6.82
2023-03-31T04:53:06.518Z,8.43
2023-03-31T04:55:33.337Z,7.50
2023-03-31T04:57:59.735Z,7.30
2023-03-31T05:00:26.622Z,9.43
2023-03-31T05:02:53.103Z,9.90
2023-03-31T05:05:19.624Z,7.70
2023-03-31T05:07:46.125Z,10.48
2023-03-31T05:10:12.811Z,7.53
2023-03-31T05:12:39.873Z,8.55
2023-03-31T05:15:08.073Z,6.38
2023-03-31T05:17:35.680Z,8.70
2023-03-31T05:20:06.060Z,12.25
2023-03-31T05:22:38.295Z,9.50
2023-03-31T05:25:07.249Z,3.75
2023-03-31T05:27:34.153Z,7.90
2023-03-31T05:30:00.567Z,9.07
2023-03-31T05:32:27.418Z,8.43
2023-03-31T05:34:57.027Z,9.70
2023-03-31T05:37:25.046Z,11.13
2023-03-31T05:39:52.125Z,13.95
2023-03-31T05:42:19.664Z,8.05
2023-03-31T05:44:46.018Z,14.25
2023-03-31T05:47:12.398Z,9.75
2023-03-31T05:49:38.717Z,8.75
2023-03-31T05:52:06.912Z,12.35
2023-03-31T05:54:33.381Z,8.32
2023-03-31T05:56:59.876Z,11.52
2023-03-31T05:59:26.377Z,8.88
2023-03-31T06:01:52.762Z,13.55
2023-03-31T06:04:19.141Z,9.60
2023-03-31T06:06:46.019Z,10.52
2023-03-31T06:09:12.323Z,12.88
2023-03-31T06:11:38.866Z,10.60
2023-03-31T06:14:05.516Z,13.05
2023-03-31T06:16:33.101Z,12.07
2023-03-31T06:18:59.808Z,7.47
2023-03-31T06:21:26.093Z,6.63
2023-03-31T06:23:55.852Z,6.03
2023-03-31T06:26:23.428Z,11.27
2023-03-31T06:28:49.813Z,8.32
2023-03-31T06:31:21.716Z,5.03
2023-03-31T06:33:48.765Z,5.38
2023-03-31T06:36:18.091Z,5.18
2023-03-31T06:38:45.966Z,7.93
2023-03-31T06:41:16.453Z,11.13
2023-03-31T06:43:43.079Z,7.93
2023-03-31T06:46:10.086Z,13.80
2023-03-31T06:48:37.067Z,5.78
2023-03-31T06:51:06.052Z,4.72
2023-03-31T06:53:32.494Z,10.90
2023-03-31T06:55:58.810Z,5.95
2023-03-31T06:58:25.776Z,6.40
2023-03-31T07:00:53.082Z,9.85
2023-03-31T07:03:22.389Z,8.57
2023-03-31T07:05:50.450Z,8.20
2023-03-31T07:08:17.703Z,9.10
2023-03-31T07:10:48.664Z,5.70
2023-03-31T07:13:16.626Z,9.77
2023-03-31T07:15:43.150Z,6.45
2023-03-31T07:18:09.646Z,6.07
2023-03-31T07:20:36.226Z,5.15
2023-03-31T07:23:04.854Z,6.32
2023-03-31T07:25:31.626Z,12.27
2023-03-31T07:27:57.961Z,22.35
2023-03-31T07:30:24.567Z,21.98
2023-03-31T07:32:52.270Z,50.88
2023-03-31T07:35:19.223Z,25.85
2023-03-31T07:37:48.072Z,24.50
2023-03-31T07:40:21.013Z,19.75
2023-03-31T07:42:49.378Z,30.23
2023-03-31T07:45:16.565Z,12.82
2023-03-31T07:47:44.536Z,12.98
2023-03-31T07:50:11.024Z,9.63
2023-03-31T07:52:37.345Z,6.22
2023-03-31T07:55:04.659Z,7.45
2023-03-31T07:57:31.113Z,8.73
2023-03-31T07:59:57.504Z,7.75
2023-03-31T08:02:24.193Z,12.40
2023-03-31T08:04:50.820Z,8.85
2023-03-31T08:07:17.276Z,9.35
2023-03-31T08:09:45.586Z,4.93
2023-03-31T08:12:13.958Z,10.23
2023-03-31T08:14:41.603Z,8.57
2023-03-31T08:17:09.535Z,10.50
2023-03-31T08:19:35.898Z,8.00
2023-03-31T08:22:02.905Z,5.45
2023-03-31T08:24:29.217Z,5.13
2023-03-31T08:26:55.840Z,4.90
2023-03-31T08:29:22.138Z,7.47
2023-03-31T08:31:48.440Z,4.18
2023-03-31T08:34:14.966Z,1.98
2023-03-31T08:36:41.361Z,3.00
2023-03-31T08:39:07.781Z,5.43
2023-03-31T08:41:58.664Z,10.35
2023-03-31T08:44:30.924Z,5.15
2023-03-31T08:46:59.876Z,6.95
2023-03-31T08:49:28.056Z,5.80
2023-03-31T08:51:59.620Z,5.03
2023-03-31T08:54:40.415Z,9.85
2023-03-31T08:57:15.809Z,5.38
2023-03-31T08:59:44.154Z,8.13
2023-03-31T09:02:33.332Z,7.55
2023-03-31T09:05:11.387Z,11.18
2023-03-31T09:08:14.443Z,6.82
2023-03-31T09:11:06.396Z,8.27
2023-03-31T09:13:50.742Z,5.70
2023-03-31T09:16:42.333Z,7.50
2023-03-31T09:19:18.250Z,5.55
2023-03-31T09:21:51.735Z,9.45
2023-03-31T09:24:23.523Z,8.48
2023-03-31T09:26:54.681Z,14.27
2023-03-31T09:29:31.260Z,12.55
2023-03-31T09:32:03.206Z,12.63
2023-03-31T09:34:33.253Z,14.13
2023-03-31T09:36:59.930Z,18.60
2023-03-31T09:39:26.288Z,25.35
2023-03-31T09:41:54.114Z,21.42
2023-03-31T09:44:42.018Z,20.75
2023-03-31T09:47:16.620Z,21.77
2023-03-31T09:49:53.766Z,26.45
2023-03-31T09:52:30.807Z,25.08
2023-03-31T09:55:02.443Z,26.05
2023-03-31T09:57:34.023Z,24.17
2023-03-31T10:00:16.989Z,18.40
2023-03-31T10:02:48.462Z,14.25
2023-03-31T10:05:36.165Z,11.77
2023-03-31T10:08:14.532Z,17.35
2023-03-31T10:10:46.580Z,18.60
2023-03-31T10:13:17.246Z,13.75
2023-03-31T10:15:43.667Z,14.07
2023-03-31T10:18:18.587Z,16.98
2023-03-31T10:20:50.480Z,12.00
2023-03-31T10:23:26.825Z,12.27
2023-03-31T10:25:54.222Z,7.13
2023-03-31T10:28:22.532Z,12.30
2023-03-31T10:30:55.836Z,14.55
2023-03-31T10:33:25.731Z,6.15
2023-03-31T10:36:00.262Z,12.20
2023-03-31T10:38:40.531Z,10.95
2023-03-31T10:41:07.497Z,8.25
2023-03-31T10:43:41.386Z,7.03
2023-03-31T10:46:08.387Z,10.35
2023-03-31T10:48:41.392Z,12.23
2023-03-31T10:51:14.946Z,14.30
2023-03-31T10:53:43.849Z,9.93
2023-03-31T10:56:57.919Z,14.55
2023-03-31T10:59:46.682Z,15.45
2023-03-31T11:02:46.489Z,21.58
2023-03-31T11:05:39.974Z,18.02
2023-03-31T11:08:30.555Z,15.68
2023-03-31T11:10:59.544Z,15.95
2023-03-31T11:13:50.608Z,14.98
2023-03-31T11:16:19.798Z,15.27
2023-03-31T11:19:11.509Z,15.20
2023-03-31T11:21:45.904Z,12.80
2023-03-31T11:24:32.738Z,16.70
2023-03-31T11:27:18.177Z,17.95
2023-03-31T11:29:51.197Z,16.38
2023-03-31T11:32:55.344Z,18.00
2023-03-31T11:35:43.635Z,14.52
2023-03-31T11:38:30.088Z,18.52
2023-03-31T11:41:07.879Z,23.63
2023-03-31T11:43:48.548Z,30.05
2023-03-31T11:46:43.830Z,13.50
2023-03-31T11:49:22.592Z,10.90
2023-03-31T11:51:55.645Z,9.27
2023-03-31T11:54:43.628Z,6.90
2023-03-31T11:57:22.100Z,6.93
2023-03-31T11:59:56.026Z,6.82
2023-03-31T12:02:51.164Z,5.85
2023-03-31T12:05:19.233Z,5.55
2023-03-31T12:07:59.515Z,8.88
2023-03-31T12:10:43.648Z,9.80
2023-03-31T12:13:28.656Z,10.13
2023-03-31T12:16:22.009Z,12.93
2023-03-31T12:19:02.362Z,6.20
2023-03-31T12:21:30.744Z,12.23
2023-03-31T12:23:57.139Z,10.93
2023-03-31T12:26:31.004Z,14.65
2023-03-31T12:29:04.464Z,13.95
2023-03-31T12:31:33.184Z,14.15
2023-03-31T12:34:04.757Z,13.73
2023-03-31T12:36:54.862Z,7.93
2023-03-31T12:39:43.037Z,15.15
2023-03-31T12:42:35.614Z,21.50
2023-03-31T12:45:06.530Z,36.10
2023-03-31T12:47:59.167Z,27.75
2023-03-31T12:50:57.791Z,15.57
2023-03-31T12:53:42.133Z,13.30
2023-03-31T12:56:08.859Z,15.88
2023-03-31T12:58:40.700Z,13.48
2023-03-31T13:01:23.621Z,24.50
2023-03-31T13:04:20.170Z,19.67
2023-03-31T13:06:54.866Z,23.15
2023-03-31T13:09:33.031Z,26.98
2023-03-31T13:12:07.513Z,24.70
2023-03-31T13:14:38.854Z,17.67
2023-03-31T13:17:27.117Z,31.20
2023-03-31T13:19:55.226Z,21.17
2023-03-31T13:22:36.435Z,29.42
2023-03-31T13:27:50.744Z,17.30
2023-03-31T13:30:36.095Z,16.95
2023-03-31T13:33:12.634Z,19.88
2023-03-31T13:35:42.506Z,21.23
2023-03-31T13:38:18.139Z,14.20
2023-03-31T13:41:15.237Z,14.65
2023-03-31T13:44:12.216Z,11.18
2023-03-31T13:46:55.695Z,11.25
2023-03-31T13:49:47.073Z,7.13
2023-03-31T13:54:58.276Z,12.27
2023-03-31T13:57:44.077Z,8.98
2023-03-31T14:00:25.203Z,5.97
2023-03-31T14:03:15.798Z,14.52
2023-03-31T14:05:47.338Z,8.15
2023-03-31T14:08:39.679Z,6.00
2023-03-31T14:11:26.288Z,8.85
2023-03-31T14:14:11.090Z,8.27
2023-03-31T14:16:53.929Z,7.85
2023-03-31T14:19:39.127Z,10.63
2023-03-31T14:22:19.275Z,5.35
2023-03-31T14:24:51.670Z,8.88
2023-03-31T14:27:47.412Z,11.95
2023-03-31T14:30:52.633Z,7.78
2023-03-31T14:33:32.089Z,8.75
2023-03-31T14:36:05.416Z,7.95
2023-03-31T14:38:32.101Z,14.27
2023-03-31T14:41:01.061Z,13.18
2023-03-31T14:43:33.419Z,16.55
2023-03-31T14:46:08.196Z,11.70
2023-03-31T14:48:49.244Z,12.30
2023-03-31T14:51:18.375Z,23.90
2023-03-31T14:53:44.762Z,34.72
2023-03-31T14:56:24.708Z,18.90
2023-03-31T14:58:53.057Z,11.30
2023-03-31T15:01:25.343Z,11.13
2023-03-31T15:03:53.736Z,12.25
2023-03-31T15:06:20.304Z,17.23
2023-03-31T15:08:47.013Z,25.42
2023-03-31T15:11:19.521Z,20.92
2023-03-31T15:14:03.434Z,18.73
2023-03-31T15:16:45.330Z,16.80
2023-03-31T15:19:23.496Z,13.15
2023-03-31T15:22:10.463Z,11.60
2023-03-31T15:24:36.849Z,14.02
2023-03-31T15:27:10.506Z,5.18
2023-03-31T15:29:41.489Z,3.88
2023-03-31T15:32:34.883Z,2.50
2023-03-31T15:35:20.695Z,6.47
2023-03-31T15:37:51.907Z,4.28
2023-03-31T15:40:31.312Z,6.10
2023-03-31T15:43:06.965Z,4.80
2023-03-31T15:45:47.309Z,4.63
2023-03-31T15:48:29.974Z,2.80
2023-03-31T15:51:07.930Z,7.07
2023-03-31T15:53:45.912Z,3.72
2023-03-31T15:56:34.856Z,7.63
2023-03-31T15:59:06.692Z,3.92
2023-03-31T16:01:38.713Z,3.10
2023-03-31T16:04:14.111Z,2.83
2023-03-31T16:06:43.464Z,5.38
2023-03-31T16:09:28.141Z,4.80
2023-03-31T16:12:01.852Z,4.93
2023-03-31T16:14:43.470Z,5.43
2023-03-31T16:17:20.930Z,3.60
2023-03-31T16:19:59.938Z,10.65
2023-03-31T16:22:35.343Z,7.75
2023-03-31T16:25:01.919Z,6.68
2023-03-31T16:27:28.485Z,4.38
2023-03-31T16:30:09.993Z,3.55
2023-03-31T16:32:36.397Z,3.38
2023-03-31T16:35:05.924Z,5.63
2023-03-31T16:37:32.386Z,5.60
2023-03-31T16:39:58.707Z,6.68
2023-03-31T16:42:25.796Z,5.15
2023-03-31T16:45:09.717Z,5.20
2023-03-31T16:47:38.621Z,5.35
2023-03-31T16:50:07.326Z,6.18
2023-03-31T16:52:34.071Z,5.78
2023-03-31T16:55:01.213Z,6.45
2023-03-31T16:57:28.000Z,5.13
2023-03-31T16:59:56.119Z,4.80
2023-03-31T17:02:23.947Z,7.20
2023-03-31T17:04:50.797Z,4.55
2023-03-31T17:07:18.727Z,6.88
2023-03-31T17:09:45.140Z,6.95
2023-03-31T17:12:11.452Z,5.40
2023-03-31T17:14:38.058Z,5.18
2023-03-31T17:17:04.406Z,6.47
2023-03-31T17:19:31.428Z,7.85
2023-03-31T17:22:01.691Z,7.68
2023-03-31T17:24:28.114Z,5.97
2023-03-31T17:26:54.617Z,7.45
2023-03-31T17:29:21.231Z,8.60
2023-03-31T17:31:47.582Z,10.73
2023-03-31T17:34:13.908Z,6.28
2023-03-31T17:36:41.833Z,10.85
2023-03-31T17:39:08.334Z,11.07
2023-03-31T17:41:34.675Z,8.55
2023-03-31T17:44:01.091Z,9.07
2023-03-31T17:46:27.584Z,7.38
2023-03-31T17:48:56.299Z,3.38
2023-03-31T17:51:23.028Z,10.15
2023-03-31T17:53:49.519Z,9.45
2023-03-31T17:56:17.584Z,5.85
2023-03-31T17:58:44.250Z,6.07
2023-03-31T18:01:11.673Z,6.57
2023-03-31T18:03:38.235Z,4.47
2023-03-31T18:06:14.536Z,7.68
2023-03-31T18:08:42.093Z,4.50
2023-03-31T18:11:09.518Z,3.47
2023-03-31T18:13:37.014Z,5.97
2023-03-31T18:16:04.334Z,4.78
2023-03-31T18:18:30.744Z,5.70
2023-03-31T18:21:03.384Z,3.38
2023-03-31T18:23:29.840Z,5.40
2023-03-31T18:25:56.539Z,4.93
2023-03-31T18:28:22.914Z,10.00
2023-03-31T18:30:49.274Z,7.78
2023-03-31T18:33:16.416Z,6.88
2023-03-31T18:35:43.801Z,7.88
2023-03-31T18:38:10.151Z,5.35
2023-03-31T18:40:36.791Z,4.97
2023-03-31T18:43:03.612Z,8.07
2023-03-31T18:45:30.702Z,5.03
2023-03-31T18:47:57.730Z,4.68
2023-03-31T18:50:24.186Z,5.72
2023-03-31T18:52:54.473Z,5.60
2023-03-31T18:55:21.830Z,6.80
2023-03-31T18:57:48.170Z,7.07
2023-03-31T19:00:15.254Z,5.18
2023-03-31T19:02:42.005Z,11.25
2023-03-31T19:05:08.930Z,7.38
2023-03-31T19:07:35.749Z,7.03
2023-03-31T19:10:02.302Z,12.13
2023-03-31T19:12:28.888Z,5.57
2023-03-31T19:14:55.288Z,8.48
2023-03-31T19:17:21.626Z,6.18
2023-03-31T19:19:48.575Z,9.18
2023-03-31T19:22:15.333Z,6.93
2023-03-31T19:24:42.265Z,6.65
2023-03-31T19:27:10.780Z,9.68
2023-03-31T19:29:37.081Z,8.13
2023-03-31T19:32:03.754Z,5.75
2023-03-31T19:34:30.165Z,8.55
2023-03-31T19:36:56.580Z,5.55
2023-03-31T19:39:23.009Z,5.70
2023-03-31T19:41:49.308Z,8.07
2023-03-31T19:44:15.649Z,7.03
2023-03-31T19:46:42.005Z,6.22
2023-03-31T19:49:09.294Z,8.88
2023-03-31T19:51:35.981Z,7.38
2023-03-31T19:54:02.292Z,9.43
2023-03-31T19:56:31.300Z,5.45
2023-03-31T19:58:59.112Z,10.13
2023-03-31T20:01:27.774Z,6.53
2023-03-31T20:03:54.562Z,11.57
2023-03-31T20:06:23.997Z,9.70
2023-03-31T20:08:59.859Z,10.60
2023-03-31T20:11:28.199Z,7.25
2023-03-31T20:13:55.779Z,8.57
2023-03-31T20:16:24.857Z,13.30
2023-03-31T20:18:53.258Z,7.90
2023-03-31T20:21:21.104Z,8.50
2023-03-31T20:23:48.004Z,11.15
2023-03-31T20:26:18.452Z,9.80
2023-03-31T20:28:46.478Z,14.75
2023-03-31T20:31:19.446Z,6.93
2023-03-31T20:33:46.626Z,9.82
2023-03-31T20:36:18.098Z,13.88
2023-03-31T20:38:47.319Z,15.35
2023-03-31T20:41:14.482Z,8.88
2023-03-31T20:43:41.090Z,13.02
2023-03-31T20:46:09.029Z,7.85
2023-03-31T20:48:41.384Z,13.05
2023-03-31T20:51:10.170Z,15.07
2023-03-31T20:53:41.867Z,15.07
2023-03-31T20:56:09.684Z,20.67
2023-03-31T20:58:36.430Z,17.20
2023-03-31T21:01:03.144Z,17.85
2023-03-31T21:03:29.598Z,21.13
2023-03-31T21:05:55.976Z,14.27
2023-03-31T21:08:22.335Z,16.58
2023-03-31T21:10:48.623Z,13.05
2023-03-31T21:13:16.334Z,13.65
2023-03-31T21:15:47.561Z,14.10
2023-03-31T21:20:54.163Z,13.65
2023-03-31T21:23:22.019Z,9.50
2023-03-31T21:25:54.031Z,14.38
2023-03-31T21:28:22.534Z,16.70
2023-03-31T21:30:57.801Z,9.45
2023-03-31T21:33:25.029Z,9.82
2023-03-31T21:35:52.741Z,12.95
2023-03-31T21:38:20.010Z,9.82
2023-03-31T21:40:47.674Z,15.07
2023-03-31T21:43:14.668Z,12.45
2023-03-31T21:45:41.638Z,10.07
2023-03-31T21:48:10.018Z,15.13
2023-03-31T21:50:37.685Z,13.45
2023-03-31T21:53:05.288Z,10.45
2023-03-31T21:55:33.184Z,12.80
2023-03-31T21:58:00.047Z,11.68
2023-03-31T22:00:27.913Z,14.27
2023-03-31T22:03:06.292Z,15.48
2023-03-31T22:05:37.619Z,9.55
2023-03-31T22:08:03.956Z,9.35
2023-03-31T22:10:30.269Z,14.98
2023-03-31T22:12:56.668Z,19.67
2023-03-31T22:15:23.170Z,16.23
2023-03-31T22:17:49.535Z,14.20
2023-03-31T22:20:15.966Z,18.00
2023-03-31T22:22:42.250Z,13.82
2023-03-31T22:25:08.872Z,13.13
2023-03-31T22:27:35.780Z,15.88
2023-03-31T22:30:02.638Z,10.30
2023-03-31T22:32:28.958Z,13.20
2023-03-31T22:34:55.394Z,15.15
2023-03-31T22:37:21.750Z,11.27
2023-03-31T22:39:48.099Z,16.38
2023-03-31T22:42:14.431Z,17.90
2023-03-31T22:44:41.126Z,10.25
2023-03-31T22:47:07.889Z,16.80
2023-03-31T22:49:34.427Z,22.65
2023-03-31T22:52:00.801Z,16.20
2023-03-31T22:54:27.168Z,13.65
2023-03-31T22:56:54.184Z,11.88
2023-03-31T22:59:20.832Z,6.68
2023-03-31T23:01:52.795Z,9.90
2023-03-31T23:04:20.293Z,9.93
2023-03-31T23:06:47.195Z,5.25
2023-03-31T23:09:13.534Z,6.38
2023-03-31T23:11:39.896Z,8.80
2023-03-31T23:14:06.443Z,6.63
2023-03-31T23:16:33.464Z,8.23
2023-03-31T23:18:59.853Z,5.07
2023-03-31T23:21:27.506Z,5.55
2023-03-31T23:23:56.386Z,6.07
2023-03-31T23:26:25.308Z,6.60
2023-03-31T23:28:52.929Z,4.68
2023-03-31T23:31:22.725Z,5.40
2023-03-31T23:33:49.694Z,5.97
2023-03-31T23:36:17.917Z,6.95
2023-03-31T23:38:45.492Z,5.10
2023-03-31T23:41:12.182Z,5.00
2023-03-31T23:43:39.403Z,5.22
2023-03-31T23:46:06.960Z,6.15
2023-03-31T23:48:35.184Z,5.30
2023-03-31T23:51:02.049Z,7.05
2023-03-31T23:53:28.808Z,7.85
2023-03-31T23:55:57.719Z,5.20
2023-03-31T23:58:26.081Z,3.00
